首页
METAR-TAF:

METAR-TAF

机场 :

索契國際機場

索契, 俄罗斯

纬度: 43-26N, 经度: 039-54E, 海拔: 16米

当前天气观测

该预报发布于17分钟前的13:00 UTC
风速6节,风向
温度 10°C
湿度 50%
气压 1028 hPa
能见度10公里或以上

METAR: URSS 171300Z 19003MPS 9999 NSC 10/M00 Q1028 R02/010070 R06/010070 NOSIG RMK R06/19003MPS QFE770

时间: 17:17 (13:17 UTC)

预报

该预报发布于2小时和22分钟前的10:55 UTC
预报有效从17日的 12点(UTC)到 18日的 12点(UTC)
风速8节,风向,有时为17节阵风
能见度10公里或以上
少量云层高于3000英尺
短暂存在
从 17日的 12点(UTC)到 17日的 15点(UTC)
风速8节,风向西南,有时为17节阵风
成为
从 17日的 16点(UTC)到 17日的 18点(UTC)
风速12节,风向东北
成为
从 18日的 08点(UTC)到 18日的 09点(UTC)
风速6节,风向西南,有时为16节阵风

TAF: URSS 171055Z 1712/1812 18004G09MPS 9999 FEW030 TEMPO 1712/1715 23004G09MPS BECMG 1716/1718 05006MPS BECMG 1808/1809 23003G08MPS

超过4000个机场的气象观测和天气预报(METAR&TAF报告)。

可查询的气象台以黄色和红色小点在地图上表示。

将鼠标移到小点上方,可查看气象台名称。

然后点击查看天气观测和预报。

如需切换地图:点击带黑十字的绿色按钮放大地图;点击带横线的绿色按钮缩小地图;或者点击绿色箭头查看邻近地区的地图。


METAR-TAF: